createdAt,value
2024-01-20T00:02:23.618Z,16.50
2024-01-20T00:05:27.311Z,18.80
2024-01-20T00:08:30.632Z,24.12
2024-01-20T00:11:33.985Z,18.85
2024-01-20T00:14:36.879Z,18.47
2024-01-20T00:17:41.999Z,20.77
2024-01-20T00:20:47.441Z,18.45
2024-01-20T00:23:51.543Z,20.08
2024-01-20T00:26:54.303Z,20.95
2024-01-20T00:29:57.772Z,15.15
2024-01-20T00:33:00.907Z,19.37
2024-01-20T00:36:04.624Z,24.23
2024-01-20T00:39:07.544Z,19.87
2024-01-20T00:42:10.840Z,19.23
2024-01-20T00:45:13.644Z,18.23
2024-01-20T00:48:16.829Z,20.02
2024-01-20T00:51:19.801Z,13.68
2024-01-20T00:54:23.041Z,24.37
2024-01-20T00:57:25.908Z,18.15
2024-01-20T01:00:29.082Z,15.13
2024-01-20T01:03:32.262Z,19.37
2024-01-20T01:06:35.640Z,20.07
2024-01-20T01:09:38.681Z,20.98
2024-01-20T01:12:41.878Z,15.82
2024-01-20T01:15:44.695Z,16.17
2024-01-20T01:18:48.153Z,18.30
2024-01-20T01:21:51.254Z,17.27
2024-01-20T01:24:54.650Z,20.10
2024-01-20T01:27:57.747Z,15.13
2024-01-20T01:31:00.935Z,17.50
2024-01-20T01:34:03.952Z,15.77
2024-01-20T01:37:07.256Z,12.83
2024-01-20T01:40:10.676Z,20.23
2024-01-20T01:43:13.917Z,19.62
2024-01-20T01:46:17.010Z,15.17
2024-01-20T01:49:22.036Z,14.02
2024-01-20T01:52:25.634Z,15.50
2024-01-20T01:55:29.183Z,14.82
2024-01-20T01:58:32.210Z,16.48
2024-01-20T02:01:35.557Z,12.73
2024-01-20T02:04:39.154Z,21.87
2024-01-20T02:07:44.916Z,18.40
2024-01-20T02:10:48.648Z,20.37
2024-01-20T02:13:51.971Z,21.55
2024-01-20T02:16:55.002Z,13.43
2024-01-20T02:19:58.176Z,14.05
2024-01-20T02:23:01.790Z,14.27
2024-01-20T02:26:05.206Z,14.65
2024-01-20T02:29:08.379Z,15.63
2024-01-20T02:32:11.642Z,20.95
2024-01-20T02:35:14.575Z,17.27
2024-01-20T02:38:17.892Z,16.37
2024-01-20T02:41:20.838Z,16.30
2024-01-20T02:44:24.151Z,18.65
2024-01-20T02:47:27.203Z,18.87
2024-01-20T02:50:30.298Z,15.52
2024-01-20T02:53:33.616Z,10.98
2024-01-20T02:56:37.146Z,14.73
2024-01-20T02:59:40.021Z,13.52
2024-01-20T03:02:43.211Z,17.77
2024-01-20T03:05:46.612Z,17.62
2024-01-20T03:08:50.380Z,17.50
2024-01-20T03:11:53.200Z,15.88
2024-01-20T03:14:56.489Z,11.68
2024-01-20T03:17:59.640Z,11.83
2024-01-20T03:21:03.025Z,16.77
2024-01-20T03:24:06.350Z,9.23
2024-01-20T03:27:10.900Z,13.65
2024-01-20T03:30:14.159Z,16.05
2024-01-20T03:33:17.698Z,15.38
2024-01-20T03:36:20.769Z,12.35
2024-01-20T03:39:24.285Z,12.60
2024-01-20T03:42:29.261Z,16.37
2024-01-20T03:45:32.805Z,14.77
2024-01-20T03:48:35.920Z,12.53
2024-01-20T03:51:39.497Z,11.68
2024-01-20T03:54:42.585Z,15.60
2024-01-20T03:57:45.711Z,15.55
2024-01-20T04:01:05.139Z,13.68
2024-01-20T04:04:09.366Z,12.40
2024-01-20T04:07:12.689Z,12.85
2024-01-20T04:10:16.104Z,12.47
2024-01-20T04:13:19.118Z,15.35
2024-01-20T04:16:22.366Z,12.80
2024-01-20T04:19:25.465Z,14.07
2024-01-20T04:22:29.025Z,11.75
2024-01-20T04:25:32.009Z,17.92
2024-01-20T04:28:35.220Z,17.30
2024-01-20T04:31:38.401Z,17.10
2024-01-20T04:34:41.945Z,17.98
2024-01-20T04:37:45.245Z,17.52
2024-01-20T04:40:48.683Z,15.23
2024-01-20T04:43:51.724Z,15.45
2024-01-20T04:46:55.065Z,10.65
2024-01-20T04:49:57.832Z,12.63
2024-01-20T04:53:00.976Z,15.50
2024-01-20T04:56:07.643Z,14.68
2024-01-20T04:59:10.869Z,23.80
2024-01-20T05:02:14.576Z,21.75
2024-01-20T05:05:22.851Z,17.58
2024-01-20T05:08:25.713Z,23.08
2024-01-20T05:11:28.707Z,13.13
2024-01-20T05:14:31.726Z,17.62
2024-01-20T05:17:35.370Z,13.85
2024-01-20T05:20:39.337Z,14.70
2024-01-20T05:23:42.686Z,13.98
2024-01-20T05:26:45.723Z,19.25
2024-01-20T05:29:49.139Z,14.82
2024-01-20T05:32:52.291Z,21.98
2024-01-20T05:35:57.659Z,21.75
2024-01-20T05:39:00.707Z,21.92
2024-01-20T05:42:04.650Z,16.63
2024-01-20T05:45:10.809Z,22.67
2024-01-20T05:48:14.396Z,22.48
2024-01-20T05:51:17.190Z,21.53
2024-01-20T05:54:20.636Z,21.50
2024-01-20T05:57:25.374Z,20.88
2024-01-20T06:00:28.890Z,18.50
2024-01-20T06:03:35.873Z,20.17
2024-01-20T06:06:39.279Z,22.27
2024-01-20T06:09:42.691Z,20.85
2024-01-20T06:12:46.065Z,21.73
2024-01-20T06:15:49.901Z,20.55
2024-01-20T06:18:52.874Z,17.08
2024-01-20T06:21:56.346Z,19.83
2024-01-20T06:24:59.377Z,17.10
2024-01-20T06:28:04.745Z,34.58
2024-01-20T06:31:07.789Z,20.58
2024-01-20T06:34:11.214Z,45.53
2024-01-20T06:37:14.762Z,40.12
2024-01-20T06:40:18.245Z,40.33
2024-01-20T06:43:21.320Z,42.00
2024-01-20T06:46:24.754Z,45.33
2024-01-20T06:49:27.681Z,47.42
2024-01-20T06:52:32.706Z,76.17
2024-01-20T06:55:36.072Z,49.72
2024-01-20T06:58:39.483Z,67.72
2024-01-20T07:01:46.039Z,98.93
2024-01-20T07:04:50.218Z,73.15
2024-01-20T07:07:55.097Z,69.20
2024-01-20T07:10:58.471Z,51.60
2024-01-20T07:14:01.253Z,40.20
2024-01-20T07:17:06.732Z,52.38
2024-01-20T07:20:12.074Z,59.40
2024-01-20T07:23:15.122Z,50.23
2024-01-20T07:26:18.376Z,49.08
2024-01-20T07:29:21.694Z,55.70
2024-01-20T07:32:24.752Z,59.05
2024-01-20T07:35:27.957Z,75.35
2024-01-20T07:38:31.170Z,60.35
2024-01-20T07:41:34.566Z,53.85
2024-01-20T07:44:37.711Z,57.67
2024-01-20T07:47:41.306Z,55.15
2024-01-20T07:50:44.314Z,56.90
2024-01-20T07:53:48.758Z,54.40
2024-01-20T07:56:51.656Z,37.08
2024-01-20T07:59:54.956Z,39.22
2024-01-20T08:02:58.856Z,58.67
2024-01-20T08:06:08.788Z,44.97
2024-01-20T08:09:12.664Z,43.22
2024-01-20T08:12:16.240Z,42.15
2024-01-20T08:15:19.197Z,41.57
2024-01-20T08:18:23.039Z,35.50
2024-01-20T08:21:26.356Z,24.48
2024-01-20T08:24:29.847Z,20.23
2024-01-20T08:27:33.077Z,15.35
2024-01-20T08:30:36.480Z,17.62
2024-01-20T08:33:40.789Z,15.00
2024-01-20T08:36:44.466Z,15.97
2024-01-20T08:39:47.297Z,12.15
2024-01-20T08:42:51.849Z,15.07
2024-01-20T08:45:54.614Z,12.63
2024-01-20T08:48:57.917Z,13.30
2024-01-20T08:52:00.942Z,13.37
2024-01-20T08:55:04.601Z,7.12
2024-01-20T08:58:07.525Z,14.38
2024-01-20T09:01:11.180Z,16.55
2024-01-20T09:04:17.353Z,12.63
2024-01-20T09:07:22.035Z,11.63
2024-01-20T09:10:25.409Z,11.60
2024-01-20T09:13:29.051Z,13.23
2024-01-20T09:16:32.010Z,11.80
2024-01-20T09:19:35.281Z,16.27
2024-01-20T09:22:38.390Z,12.83
2024-01-20T09:25:41.588Z,12.63
2024-01-20T09:28:44.614Z,11.70
2024-01-20T09:31:47.997Z,11.43
2024-01-20T09:34:50.964Z,12.97
2024-01-20T09:37:54.051Z,11.70
2024-01-20T09:40:59.545Z,12.35
2024-01-20T09:44:04.033Z,13.15
2024-01-20T09:47:11.324Z,11.38
2024-01-20T09:50:14.654Z,18.70
2024-01-20T09:53:20.034Z,11.73
2024-01-20T09:56:23.580Z,9.55
2024-01-20T09:59:29.021Z,10.85
2024-01-20T10:02:34.566Z,8.60
2024-01-20T10:05:39.277Z,12.70
2024-01-20T10:08:42.579Z,12.68
2024-01-20T10:11:46.332Z,13.40
2024-01-20T10:14:49.586Z,10.90
2024-01-20T10:17:53.861Z,11.07
2024-01-20T10:21:05.074Z,12.50
2024-01-20T10:24:09.330Z,11.38
2024-01-20T10:27:21.676Z,12.20
2024-01-20T10:30:26.449Z,13.18
2024-01-20T10:33:29.538Z,18.90
2024-01-20T10:36:33.946Z,8.33
2024-01-20T10:39:43.787Z,12.68
2024-01-20T10:42:51.590Z,15.20
2024-01-20T10:46:21.240Z,11.50
2024-01-20T10:49:24.643Z,14.85
2024-01-20T10:52:27.452Z,8.70
2024-01-20T10:55:33.426Z,14.43
2024-01-20T10:58:53.502Z,12.63
2024-01-20T11:01:57.638Z,13.00
2024-01-20T11:05:01.444Z,13.27
2024-01-20T11:08:07.830Z,12.77
2024-01-20T11:11:11.514Z,11.12
2024-01-20T11:14:16.975Z,17.10
2024-01-20T11:17:20.698Z,11.82
2024-01-20T11:20:24.173Z,12.63
2024-01-20T11:23:27.999Z,10.00
2024-01-20T11:26:38.881Z,10.13
2024-01-20T11:29:41.686Z,12.50
2024-01-20T11:32:45.432Z,12.02
2024-01-20T11:35:48.445Z,8.93
2024-01-20T11:38:53.309Z,12.00
2024-01-20T11:42:05.522Z,10.00
2024-01-20T11:45:09.187Z,11.52
2024-01-20T11:48:15.099Z,11.52
2024-01-20T11:51:21.419Z,12.02
2024-01-20T11:54:24.433Z,14.00
2024-01-20T11:57:31.473Z,10.40
2024-01-20T12:00:34.724Z,10.20
2024-01-20T12:03:38.013Z,15.25
2024-01-20T12:06:41.178Z,11.95
2024-01-20T12:09:48.311Z,11.03
2024-01-20T12:12:51.226Z,11.30
2024-01-20T12:15:55.394Z,11.43
2024-01-20T12:18:58.337Z,11.38
2024-01-20T12:22:01.961Z,11.50
2024-01-20T12:25:05.334Z,11.47
2024-01-20T12:28:08.549Z,13.55
2024-01-20T12:31:13.890Z,13.35
2024-01-20T12:34:18.881Z,14.07
2024-01-20T12:37:22.119Z,15.93
2024-01-20T12:40:26.102Z,15.00
2024-01-20T12:43:29.249Z,13.82
2024-01-20T12:46:32.490Z,13.80
2024-01-20T12:49:35.557Z,10.07
2024-01-20T12:52:38.956Z,15.63
2024-01-20T12:55:42.162Z,11.50
2024-01-20T12:58:45.448Z,14.93
2024-01-20T13:01:50.193Z,15.93
2024-01-20T13:04:53.638Z,13.00
2024-01-20T13:07:56.887Z,14.77
2024-01-20T13:11:00.105Z,14.87
2024-01-20T13:14:04.732Z,16.37
2024-01-20T13:17:07.821Z,14.07
2024-01-20T13:20:11.316Z,10.45
2024-01-20T13:23:14.948Z,12.88
2024-01-20T13:26:18.273Z,13.63
2024-01-20T13:29:21.756Z,13.50
2024-01-20T13:32:24.975Z,12.13
2024-01-20T13:35:28.361Z,14.93
2024-01-20T13:38:31.396Z,13.55
2024-01-20T13:41:35.354Z,13.67
2024-01-20T13:44:38.736Z,11.50
2024-01-20T13:47:41.971Z,13.38
2024-01-20T13:50:44.991Z,14.90
2024-01-20T13:53:48.738Z,12.07
2024-01-20T13:56:51.754Z,16.00
2024-01-20T13:59:54.905Z,14.73
2024-01-20T14:02:58.118Z,14.27
2024-01-20T14:06:01.444Z,14.87
2024-01-20T14:09:06.440Z,15.30
2024-01-20T14:12:10.598Z,18.53
2024-01-20T14:15:13.766Z,19.87
2024-01-20T14:18:17.500Z,7.57
2024-01-20T14:21:20.668Z,13.05
2024-01-20T14:24:24.054Z,15.52
2024-01-20T14:27:27.073Z,15.63
2024-01-20T14:30:30.314Z,13.75
2024-01-20T14:33:33.604Z,12.30
2024-01-20T14:36:37.042Z,13.70
2024-01-20T14:39:40.709Z,16.67
2024-01-20T14:42:44.305Z,19.33
2024-01-20T14:45:47.447Z,16.37
2024-01-20T14:48:50.713Z,14.63
2024-01-20T14:51:53.605Z,14.43
2024-01-20T14:54:57.951Z,17.20
2024-01-20T14:58:00.851Z,15.15
2024-01-20T15:01:04.881Z,16.00
2024-01-20T15:04:08.678Z,17.73
2024-01-20T15:07:12.405Z,18.45
2024-01-20T15:10:15.738Z,19.05
2024-01-20T15:13:19.088Z,16.03
2024-01-20T15:16:22.285Z,19.55
2024-01-20T15:19:26.052Z,17.08
2024-01-20T15:22:29.074Z,20.70
2024-01-20T15:25:32.556Z,24.60
2024-01-20T15:28:35.406Z,22.62
2024-01-20T15:31:38.754Z,24.92
2024-01-20T15:34:41.822Z,37.38
2024-01-20T15:37:45.159Z,28.65
2024-01-20T15:40:48.498Z,35.47
2024-01-20T15:43:54.304Z,35.03
2024-01-20T15:46:57.426Z,38.63
2024-01-20T15:50:01.025Z,36.90
2024-01-20T15:53:04.193Z,32.45
2024-01-20T15:56:09.672Z,35.95
2024-01-20T15:59:13.609Z,37.10
2024-01-20T16:02:17.041Z,37.40
2024-01-20T16:05:20.563Z,38.83
2024-01-20T16:08:23.641Z,77.00
2024-01-20T16:11:27.754Z,66.12
2024-01-20T16:14:31.165Z,52.55
2024-01-20T16:17:37.508Z,44.87
2024-01-20T16:20:40.584Z,53.03
2024-01-20T16:23:43.748Z,57.47
2024-01-20T16:26:46.698Z,54.08
2024-01-20T16:29:50.130Z,66.10
2024-01-20T16:32:52.912Z,116.85
2024-01-20T16:35:56.480Z,131.30
2024-01-20T16:38:59.314Z,124.57
2024-01-20T16:42:02.722Z,112.15
2024-01-20T16:45:06.285Z,95.80
2024-01-20T16:48:09.849Z,127.87
2024-01-20T16:51:18.278Z,82.00
2024-01-20T16:54:27.929Z,97.37
2024-01-20T16:57:31.162Z,86.10
2024-01-20T17:00:34.500Z,83.32
2024-01-20T17:03:37.478Z,82.18
2024-01-20T17:06:40.697Z,87.80
2024-01-20T17:09:44.452Z,78.00
2024-01-20T17:12:47.684Z,80.82
2024-01-20T17:15:50.448Z,80.53
2024-01-20T17:18:54.613Z,78.93
2024-01-20T17:21:57.613Z,67.82
2024-01-20T17:25:01.636Z,78.75
2024-01-20T17:28:04.743Z,78.78
2024-01-20T17:31:08.146Z,90.90
2024-01-20T17:34:11.331Z,91.12
2024-01-20T17:37:15.222Z,81.70
2024-01-20T17:40:18.630Z,69.20
2024-01-20T17:43:22.137Z,77.82
2024-01-20T17:46:25.119Z,71.80
2024-01-20T17:49:28.878Z,78.20
2024-01-20T17:52:32.147Z,112.12
2024-01-20T17:55:35.803Z,86.85
2024-01-20T17:58:38.850Z,82.78
2024-01-20T18:01:43.197Z,76.00
2024-01-20T18:04:46.963Z,83.55
2024-01-20T18:07:51.381Z,75.60
2024-01-20T18:10:55.582Z,85.77
2024-01-20T18:13:59.552Z,85.80
2024-01-20T18:17:03.538Z,62.03
2024-01-20T18:20:08.260Z,68.90
2024-01-20T18:23:12.160Z,28.33
2024-01-20T18:26:15.405Z,75.78
2024-01-20T18:29:18.819Z,52.42
2024-01-20T18:32:22.572Z,67.50
2024-01-20T18:35:25.967Z,70.43
2024-01-20T18:38:29.056Z,68.12
2024-01-20T18:41:33.374Z,76.87
2024-01-20T18:44:36.575Z,85.87
2024-01-20T18:47:45.949Z,85.40
2024-01-20T18:50:48.848Z,69.03
2024-01-20T18:53:52.063Z,65.70
2024-01-20T18:56:55.306Z,78.50
2024-01-20T18:59:59.663Z,71.80
2024-01-20T19:03:02.995Z,85.97
2024-01-20T19:06:06.654Z,86.82
2024-01-20T19:09:09.806Z,82.45
2024-01-20T19:12:14.760Z,84.70
2024-01-20T19:15:17.866Z,83.05
2024-01-20T19:18:21.663Z,75.37
2024-01-20T19:21:25.068Z,74.43
2024-01-20T19:24:28.547Z,77.72
2024-01-20T19:27:32.286Z,73.93
2024-01-20T19:30:35.702Z,78.78
2024-01-20T19:33:40.893Z,75.62
2024-01-20T19:36:46.109Z,78.97
2024-01-20T19:39:49.047Z,85.20
2024-01-20T19:42:52.325Z,62.50
2024-01-20T19:45:55.112Z,67.43
2024-01-20T19:48:58.192Z,66.18
2024-01-20T19:52:02.008Z,62.90
2024-01-20T19:55:06.680Z,61.10
2024-01-20T19:58:09.773Z,60.83
2024-01-20T20:01:13.247Z,61.45
2024-01-20T20:04:17.576Z,47.33
2024-01-20T20:07:21.051Z,64.25
2024-01-20T20:10:28.367Z,60.28
2024-01-20T20:13:31.323Z,62.07
2024-01-20T20:16:34.705Z,66.28
2024-01-20T20:19:38.009Z,65.65
2024-01-20T20:22:41.707Z,70.03
2024-01-20T20:25:44.396Z,57.38
2024-01-20T20:28:47.755Z,58.63
2024-01-20T20:31:50.704Z,58.42
2024-01-20T20:34:58.853Z,51.28
2024-01-20T20:38:01.982Z,61.70
2024-01-20T20:41:05.559Z,63.50
2024-01-20T20:44:10.057Z,54.33
2024-01-20T20:47:14.539Z,58.17
2024-01-20T20:50:19.085Z,51.80
2024-01-20T20:53:22.285Z,46.50
2024-01-20T20:56:25.075Z,55.67
2024-01-20T20:59:28.351Z,47.67
2024-01-20T21:02:31.589Z,58.03
2024-01-20T21:05:35.102Z,48.97
2024-01-20T21:08:38.435Z,59.15
2024-01-20T21:11:42.127Z,65.68
2024-01-20T21:14:45.280Z,72.27
2024-01-20T21:17:50.096Z,110.20
2024-01-20T21:20:53.468Z,63.20
2024-01-20T21:23:56.810Z,67.97
2024-01-20T21:27:00.742Z,79.60
2024-01-20T21:30:05.762Z,77.30
2024-01-20T21:33:10.407Z,67.97
2024-01-20T21:36:14.449Z,68.95
2024-01-20T21:39:21.427Z,72.68
2024-01-20T21:42:24.765Z,85.15
2024-01-20T21:45:29.813Z,80.90
2024-01-20T21:48:33.270Z,98.28
2024-01-20T21:51:38.667Z,108.18
2024-01-20T21:54:45.144Z,87.13
2024-01-20T21:57:51.356Z,103.62
2024-01-20T22:00:55.557Z,83.22
2024-01-20T22:03:59.201Z,95.32
2024-01-20T22:07:02.037Z,77.78
2024-01-20T22:10:06.869Z,72.55
2024-01-20T22:13:09.933Z,57.88
2024-01-20T22:16:13.830Z,73.17
2024-01-20T22:19:16.832Z,80.72
2024-01-20T22:22:21.208Z,111.65
2024-01-20T22:25:24.629Z,87.37
2024-01-20T22:28:28.346Z,60.33
2024-01-20T22:31:32.415Z,52.08
2024-01-20T22:34:36.357Z,65.78
2024-01-20T22:37:39.370Z,81.07
2024-01-20T22:40:42.851Z,90.60
2024-01-20T22:43:45.980Z,65.22
2024-01-20T22:46:50.173Z,58.67
2024-01-20T22:49:53.096Z,54.05
2024-01-20T22:52:56.360Z,26.65
2024-01-20T22:55:59.239Z,57.50
2024-01-20T22:59:02.320Z,49.72
2024-01-20T23:02:05.429Z,42.20
2024-01-20T23:05:09.513Z,46.28
2024-01-20T23:08:15.090Z,52.17
2024-01-20T23:11:19.167Z,52.22
2024-01-20T23:14:22.496Z,51.70
2024-01-20T23:17:26.096Z,58.80
2024-01-20T23:20:28.932Z,53.80
2024-01-20T23:23:32.208Z,51.45
2024-01-20T23:26:36.410Z,52.57
2024-01-20T23:29:39.807Z,57.53
2024-01-20T23:32:43.916Z,50.38
2024-01-20T23:35:47.216Z,44.53
2024-01-20T23:38:50.016Z,47.38
2024-01-20T23:41:53.204Z,45.35
2024-01-20T23:44:56.485Z,46.92
2024-01-20T23:47:59.704Z,35.63
2024-01-20T23:51:02.762Z,34.88
2024-01-20T23:54:06.003Z,35.90
2024-01-20T23:57:08.857Z,35.93
